createdAt,value
2018-08-16T00:00:35.806Z,92.72
2018-08-16T00:03:03.039Z,92.81
2018-08-16T00:05:30.292Z,93.22
2018-08-16T00:07:57.484Z,93.66
2018-08-16T00:10:24.689Z,93.96
2018-08-16T00:12:52.224Z,93.57
2018-08-16T00:15:20.408Z,93.12
2018-08-16T00:17:47.612Z,94.00
2018-08-16T00:20:15.152Z,94.01
2018-08-16T00:22:42.747Z,94.44
2018-08-16T00:25:10.380Z,93.60
2018-08-16T00:27:37.592Z,93.14
2018-08-16T00:30:07.285Z,93.17
2018-08-16T00:32:34.458Z,93.05
2018-08-16T00:35:01.621Z,93.90
2018-08-16T00:37:28.727Z,94.34
2018-08-16T00:39:55.879Z,93.71
2018-08-16T00:42:23.084Z,93.81
2018-08-16T00:44:50.260Z,93.11
2018-08-16T00:47:17.415Z,93.62
2018-08-16T00:49:44.664Z,94.37
2018-08-16T00:52:11.768Z,94.00
2018-08-16T00:54:38.892Z,93.86
2018-08-16T00:57:06.104Z,94.45
2018-08-16T00:59:33.223Z,94.68
2018-08-16T01:02:00.384Z,94.48
2018-08-16T01:04:27.624Z,94.26
2018-08-16T01:06:54.773Z,94.22
2018-08-16T01:09:21.920Z,94.49
2018-08-16T01:11:49.081Z,94.82
2018-08-16T01:14:16.201Z,95.73
2018-08-16T01:16:43.460Z,95.54
2018-08-16T01:19:10.648Z,96.04
2018-08-16T01:21:37.775Z,96.71
2018-08-16T01:24:04.932Z,97.18
2018-08-16T01:26:32.090Z,96.17
2018-08-16T01:28:59.295Z,95.81
2018-08-16T01:31:26.459Z,95.61
2018-08-16T01:33:53.623Z,95.98
2018-08-16T01:36:20.859Z,96.27
2018-08-16T01:38:47.961Z,96.42
2018-08-16T01:41:15.199Z,95.98
2018-08-16T01:43:42.296Z,95.68
2018-08-16T01:46:09.456Z,96.14
2018-08-16T01:48:36.616Z,95.68
2018-08-16T01:51:03.745Z,96.38
2018-08-16T01:53:30.976Z,96.46
2018-08-16T01:55:58.139Z,96.55
2018-08-16T01:58:25.276Z,96.96
2018-08-16T02:00:52.415Z,97.14
2018-08-16T02:03:19.567Z,96.92
2018-08-16T02:05:46.829Z,97.28
2018-08-16T02:08:15.043Z,97.93
2018-08-16T02:10:42.204Z,97.06
2018-08-16T02:13:09.326Z,96.94
2018-08-16T02:15:36.440Z,97.13
2018-08-16T02:18:03.758Z,97.36
2018-08-16T02:20:30.872Z,96.90
2018-08-16T02:22:57.991Z,96.49
2018-08-16T02:25:25.167Z,96.60
2018-08-16T02:27:52.274Z,96.04
2018-08-16T02:30:19.525Z,97.04
2018-08-16T02:32:46.725Z,97.10
2018-08-16T02:35:14.138Z,96.64
2018-08-16T02:37:41.290Z,96.31
2018-08-16T02:40:09.132Z,97.09
2018-08-16T02:42:36.452Z,97.77
2018-08-16T02:45:03.657Z,97.59
2018-08-16T02:47:30.840Z,97.40
2018-08-16T02:49:57.987Z,97.58
2018-08-16T02:52:25.108Z,97.72
2018-08-16T02:54:52.373Z,97.12
2018-08-16T02:57:19.500Z,97.12
2018-08-16T02:59:46.636Z,97.80
2018-08-16T03:02:13.807Z,97.90
2018-08-16T03:04:40.908Z,97.27
2018-08-16T03:07:08.141Z,97.40
2018-08-16T03:09:35.333Z,97.92
2018-08-16T03:12:02.474Z,97.19
2018-08-16T03:14:29.610Z,97.05
2018-08-16T03:16:56.976Z,97.18
2018-08-16T03:19:24.182Z,97.86
2018-08-16T03:21:51.325Z,97.05
2018-08-16T03:24:18.515Z,96.87
2018-08-16T03:26:45.661Z,97.47
2018-08-16T03:29:12.800Z,97.89
2018-08-16T03:31:40.580Z,98.93
2018-08-16T03:34:07.825Z,99.33
2018-08-16T03:36:34.960Z,99.09
2018-08-16T03:39:02.671Z,98.64
2018-08-16T03:41:29.787Z,99.12
2018-08-16T03:43:56.962Z,98.27
2018-08-16T03:46:26.203Z,98.49
2018-08-16T03:48:53.429Z,98.95
2018-08-16T03:51:20.546Z,98.93
2018-08-16T03:53:47.731Z,97.78
2018-08-16T03:56:14.973Z,97.72
2018-08-16T03:58:42.122Z,98.21
2018-08-16T04:01:09.312Z,97.81
2018-08-16T04:03:39.544Z,98.12
2018-08-16T04:06:06.740Z,98.65
2018-08-16T04:08:33.957Z,97.92
2018-08-16T04:11:01.084Z,98.76
2018-08-16T04:13:28.172Z,99.69
2018-08-16T04:15:55.386Z,99.80
2018-08-16T04:18:22.486Z,99.79
2018-08-16T04:20:49.697Z,99.71
2018-08-16T04:23:16.840Z,99.41
2018-08-16T04:25:43.959Z,100.00
2018-08-16T04:28:11.092Z,100.00
2018-08-16T04:30:38.304Z,100.00
2018-08-16T04:33:05.485Z,100.00
2018-08-16T04:35:32.671Z,100.00
2018-08-16T04:37:59.911Z,100.00
2018-08-16T04:40:27.032Z,100.00
2018-08-16T04:42:54.230Z,100.00
2018-08-16T04:45:21.498Z,100.00
2018-08-16T04:47:48.677Z,100.00
2018-08-16T04:50:16.330Z,100.00
2018-08-16T04:52:46.050Z,100.00
2018-08-16T04:55:13.442Z,100.00
2018-08-16T04:57:41.780Z,98.97
2018-08-16T05:00:11.276Z,99.11
2018-08-16T05:02:39.776Z,98.96
2018-08-16T05:05:07.436Z,100.00
2018-08-16T05:07:34.829Z,100.00
2018-08-16T05:10:02.174Z,98.48
2018-08-16T05:12:29.285Z,98.53
2018-08-16T05:14:57.262Z,98.08
2018-08-16T05:17:24.547Z,97.86
2018-08-16T05:19:53.625Z,96.84
2018-08-16T05:22:20.946Z,96.35
2018-08-16T05:24:48.081Z,96.26
2018-08-16T05:27:16.075Z,95.29
2018-08-16T05:29:43.252Z,95.87
2018-08-16T05:32:10.576Z,95.70
2018-08-16T05:34:37.788Z,94.99
2018-08-16T05:37:05.014Z,94.20
2018-08-16T05:39:32.475Z,94.12
2018-08-16T05:41:59.636Z,94.15
2018-08-16T05:44:27.054Z,93.44
2018-08-16T05:46:54.327Z,92.92
2018-08-16T05:49:21.849Z,92.49
2018-08-16T05:51:49.012Z,91.82
2018-08-16T05:54:16.141Z,91.38
2018-08-16T05:56:43.625Z,90.71
2018-08-16T05:59:10.966Z,90.10
2018-08-16T06:01:38.163Z,90.29
2018-08-16T06:04:05.527Z,89.82
2018-08-16T06:06:32.698Z,89.94
2018-08-16T06:08:59.807Z,89.64
2018-08-16T06:11:27.341Z,88.86
2018-08-16T06:13:54.535Z,86.37
2018-08-16T06:16:21.714Z,85.08
2018-08-16T06:18:48.823Z,84.62
2018-08-16T06:21:16.023Z,81.42
2018-08-16T06:23:43.236Z,81.50
2018-08-16T06:26:10.390Z,80.40
2018-08-16T06:28:37.559Z,79.28
2018-08-16T06:31:04.763Z,78.78
2018-08-16T06:33:31.925Z,77.86
2018-08-16T06:35:59.204Z,78.15
2018-08-16T06:38:26.299Z,75.72
2018-08-16T06:40:53.429Z,75.79
2018-08-16T06:43:20.900Z,73.10
2018-08-16T06:45:48.024Z,75.95
2018-08-16T06:48:15.259Z,72.98
2018-08-16T06:50:42.428Z,72.76
2018-08-16T06:53:09.572Z,72.95
2018-08-16T06:55:36.717Z,71.82
2018-08-16T06:58:03.929Z,70.87
2018-08-16T07:00:31.277Z,70.45
2018-08-16T07:02:58.401Z,70.67
2018-08-16T07:05:25.593Z,70.46
2018-08-16T07:07:53.583Z,69.42
2018-08-16T07:10:20.769Z,69.18
2018-08-16T07:12:48.089Z,69.15
2018-08-16T07:15:15.757Z,69.32
2018-08-16T07:17:43.564Z,67.91
2018-08-16T07:20:10.751Z,64.08
2018-08-16T07:22:37.948Z,63.71
2018-08-16T07:25:05.694Z,64.16
2018-08-16T07:27:32.921Z,63.18
2018-08-16T07:30:00.246Z,65.16
2018-08-16T07:32:27.403Z,63.18
2018-08-16T07:34:54.541Z,61.46
2018-08-16T07:37:21.766Z,60.69
2018-08-16T07:39:48.916Z,60.38
2018-08-16T07:42:16.114Z,59.90
2018-08-16T07:44:43.627Z,60.51
2018-08-16T07:47:10.762Z,58.74
2018-08-16T07:49:38.117Z,59.29
2018-08-16T07:52:05.389Z,57.59
2018-08-16T07:54:32.475Z,58.56
2018-08-16T07:56:59.723Z,57.57
2018-08-16T07:59:26.891Z,55.90
2018-08-16T08:01:54.220Z,55.91
2018-08-16T08:04:21.384Z,55.58
2018-08-16T08:06:48.526Z,54.40
2018-08-16T08:09:15.744Z,55.78
2018-08-16T08:11:42.935Z,54.03
2018-08-16T08:14:10.407Z,53.30
2018-08-16T08:16:37.557Z,54.36
2018-08-16T08:19:04.875Z,53.86
2018-08-16T08:21:32.061Z,54.17
2018-08-16T08:23:59.340Z,51.24
2018-08-16T08:26:27.009Z,50.64
2018-08-16T08:28:54.124Z,49.64
2018-08-16T08:31:21.388Z,52.69
2018-08-16T08:33:48.577Z,52.17
2018-08-16T08:36:27.509Z,47.43
2018-08-16T08:38:54.804Z,46.22
2018-08-16T08:41:21.924Z,47.32
2018-08-16T08:44:00.604Z,48.32
2018-08-16T08:46:27.849Z,45.72
2018-08-16T08:48:55.393Z,46.00
2018-08-16T08:51:22.697Z,45.23
2018-08-16T08:54:11.698Z,46.34
2018-08-16T08:56:50.608Z,46.68
2018-08-16T08:59:17.826Z,44.64
2018-08-16T09:01:45.074Z,44.79
2018-08-16T09:04:12.299Z,44.73
2018-08-16T09:06:39.520Z,43.22
2018-08-16T09:09:07.468Z,42.58
2018-08-16T09:11:46.073Z,41.57
2018-08-16T09:14:24.691Z,41.21
2018-08-16T09:16:52.027Z,40.51
2018-08-16T09:19:19.285Z,39.36
2018-08-16T09:21:46.609Z,42.15
2018-08-16T09:24:13.786Z,38.73
2018-08-16T09:26:42.070Z,40.54
2018-08-16T09:29:20.997Z,41.55
2018-08-16T09:31:59.706Z,38.57
2018-08-16T09:34:26.912Z,38.65
2018-08-16T09:36:54.117Z,37.39
2018-08-16T09:39:21.458Z,39.29
2018-08-16T09:41:49.703Z,36.81
2018-08-16T09:44:16.857Z,38.04
2018-08-16T09:47:05.451Z,35.75
2018-08-16T09:49:34.790Z,38.01
2018-08-16T09:52:02.222Z,35.68
2018-08-16T09:54:29.458Z,33.88
2018-08-16T09:56:57.812Z,34.87
2018-08-16T09:59:24.958Z,34.71
2018-08-16T10:01:52.277Z,36.72
2018-08-16T10:04:19.536Z,35.60
2018-08-16T10:06:46.798Z,32.40
2018-08-16T10:09:18.921Z,32.33
2018-08-16T10:11:46.369Z,31.28
2018-08-16T10:14:13.745Z,34.59
2018-08-16T10:16:40.984Z,33.62
2018-08-16T10:19:08.116Z,32.08
2018-08-16T10:21:35.316Z,33.36
2018-08-16T10:24:03.127Z,31.75
2018-08-16T10:26:30.325Z,32.45
2018-08-16T10:28:57.548Z,28.44
2018-08-16T10:31:24.714Z,29.67
2018-08-16T10:33:51.931Z,30.11
2018-08-16T10:36:19.065Z,33.29
2018-08-16T10:38:46.261Z,30.10
2018-08-16T10:41:13.455Z,31.03
2018-08-16T10:43:40.585Z,29.02
2018-08-16T10:46:07.805Z,29.85
2018-08-16T10:48:34.916Z,29.65
2018-08-16T10:51:02.477Z,31.14
2018-08-16T10:53:29.730Z,30.44
2018-08-16T10:55:57.189Z,29.43
2018-08-16T10:58:24.340Z,29.10
2018-08-16T11:00:51.553Z,28.77
2018-08-16T11:03:18.778Z,29.47
2018-08-16T11:05:45.999Z,31.10
2018-08-16T11:08:13.153Z,29.60
2018-08-16T11:10:40.293Z,32.74
2018-08-16T11:13:07.432Z,29.64
2018-08-16T11:15:34.648Z,27.41
2018-08-16T11:18:01.969Z,28.14
2018-08-16T11:20:29.132Z,27.69
2018-08-16T11:22:56.349Z,29.84
2018-08-16T11:25:23.555Z,28.33
2018-08-16T11:27:50.751Z,27.82
2018-08-16T11:30:18.101Z,26.73
2018-08-16T11:32:45.213Z,26.96
2018-08-16T11:35:12.623Z,25.86
2018-08-16T11:37:40.039Z,26.64
2018-08-16T11:40:07.636Z,25.57
2018-08-16T11:42:34.819Z,26.81
2018-08-16T11:45:02.019Z,29.32
2018-08-16T11:47:29.214Z,26.03
2018-08-16T11:49:56.340Z,26.12
2018-08-16T11:52:23.558Z,27.05
2018-08-16T11:54:50.747Z,27.92
2018-08-16T11:57:17.888Z,28.39
2018-08-16T11:59:45.027Z,28.12
2018-08-16T12:02:12.283Z,28.40
2018-08-16T12:04:39.860Z,29.79
2018-08-16T12:07:07.108Z,28.19
2018-08-16T12:09:34.282Z,28.24
2018-08-16T12:12:01.431Z,28.12
2018-08-16T12:14:28.627Z,28.92
2018-08-16T12:16:55.816Z,27.79
2018-08-16T12:19:23.044Z,29.39
2018-08-16T12:21:50.198Z,30.48
2018-08-16T12:24:17.337Z,30.63
2018-08-16T12:29:11.277Z,30.08
2018-08-16T12:31:38.942Z,30.69
2018-08-16T12:34:06.109Z,32.38
2018-08-16T12:36:33.273Z,31.34
2018-08-16T12:39:00.431Z,30.77
2018-08-16T12:41:27.597Z,32.40
2018-08-16T12:43:54.832Z,31.18
2018-08-16T12:46:21.984Z,35.93
2018-08-16T12:48:49.118Z,32.11
2018-08-16T12:51:16.278Z,32.70
2018-08-16T12:53:43.641Z,32.35
2018-08-16T12:56:10.653Z,32.90
2018-08-16T12:58:37.831Z,34.66
2018-08-16T13:01:05.047Z,31.67
2018-08-16T13:03:32.176Z,31.46
2018-08-16T13:05:59.428Z,33.27
2018-08-16T13:08:26.592Z,32.53
2018-08-16T13:10:53.715Z,32.13
2018-08-16T13:13:20.878Z,32.31
2018-08-16T13:15:48.025Z,33.32
2018-08-16T13:18:15.201Z,31.92
2018-08-16T13:20:42.467Z,32.97
2018-08-16T13:23:11.655Z,32.51
2018-08-16T13:25:38.785Z,32.10
2018-08-16T13:28:05.966Z,32.86
2018-08-16T13:30:33.231Z,32.91
2018-08-16T13:33:00.421Z,31.68
2018-08-16T13:35:27.587Z,31.02
2018-08-16T13:37:54.721Z,31.45
2018-08-16T13:40:21.831Z,32.93
2018-08-16T13:42:49.070Z,32.48
2018-08-16T13:45:16.319Z,31.33
2018-08-16T13:47:43.433Z,31.97
2018-08-16T13:50:10.611Z,31.64
2018-08-16T13:52:37.744Z,34.19
2018-08-16T13:55:05.072Z,32.40
2018-08-16T13:57:32.295Z,31.41
2018-08-16T13:59:59.425Z,32.05
2018-08-16T14:02:26.572Z,31.84
2018-08-16T14:04:53.736Z,32.83
2018-08-16T14:07:20.934Z,31.23
2018-08-16T14:09:48.129Z,30.47
2018-08-16T14:12:15.357Z,30.86
2018-08-16T14:14:42.500Z,31.76
2018-08-16T14:17:09.661Z,31.24
2018-08-16T14:19:36.880Z,30.99
2018-08-16T14:22:04.130Z,32.23
2018-08-16T14:24:31.232Z,31.70
2018-08-16T14:26:58.401Z,32.57
2018-08-16T14:29:25.539Z,31.37
2018-08-16T14:31:52.796Z,31.39
2018-08-16T14:34:20.043Z,30.79
2018-08-16T14:36:47.165Z,30.77
2018-08-16T14:39:14.315Z,31.92
2018-08-16T14:41:41.824Z,31.92
2018-08-16T14:44:09.020Z,29.32
2018-08-16T14:46:36.744Z,30.39
2018-08-16T14:49:03.930Z,30.59
2018-08-16T14:51:31.252Z,30.99
2018-08-16T14:53:58.292Z,30.71
2018-08-16T14:56:25.515Z,29.81
2018-08-16T14:58:52.704Z,31.50
2018-08-16T15:01:19.854Z,29.59
2018-08-16T15:03:47.167Z,30.42
2018-08-16T15:06:14.296Z,32.67
2018-08-16T15:08:41.631Z,30.99
2018-08-16T15:11:08.861Z,30.71
2018-08-16T15:13:36.066Z,30.72
2018-08-16T15:16:03.229Z,31.30
2018-08-16T15:18:30.394Z,31.15
2018-08-16T15:20:57.575Z,31.11
2018-08-16T15:23:24.772Z,31.16
2018-08-16T15:25:51.921Z,31.42
2018-08-16T15:28:19.846Z,31.98
2018-08-16T15:30:46.974Z,31.24
2018-08-16T15:33:14.230Z,30.81
2018-08-16T15:35:41.449Z,32.08
2018-08-16T15:38:08.634Z,31.11
2018-08-16T15:40:35.838Z,31.11
2018-08-16T15:43:02.963Z,32.83
2018-08-16T15:45:30.276Z,32.42
2018-08-16T15:47:57.560Z,30.94
2018-08-16T15:50:24.642Z,31.48
2018-08-16T15:52:51.839Z,31.58
2018-08-16T15:55:19.013Z,31.16
2018-08-16T15:57:46.169Z,30.97
2018-08-16T16:00:13.426Z,31.77
2018-08-16T16:02:41.988Z,31.30
2018-08-16T16:05:09.240Z,33.43
2018-08-16T16:07:36.690Z,32.77
2018-08-16T16:10:04.648Z,31.87
2018-08-16T16:12:31.874Z,31.99
2018-08-16T16:14:59.089Z,31.95
2018-08-16T16:17:26.295Z,32.34
2018-08-16T16:19:53.528Z,31.05
2018-08-16T16:22:20.807Z,32.28
2018-08-16T16:24:48.172Z,32.19
2018-08-16T16:27:15.359Z,33.36
2018-08-16T16:29:42.524Z,33.07
2018-08-16T16:32:10.244Z,32.93
2018-08-16T16:34:37.532Z,33.75
2018-08-16T16:37:04.815Z,33.84
2018-08-16T16:39:32.015Z,33.46
2018-08-16T16:42:00.829Z,34.36
2018-08-16T16:44:28.706Z,34.08
2018-08-16T16:46:55.963Z,34.06
2018-08-16T16:49:23.851Z,34.60
2018-08-16T16:51:51.639Z,34.02
2018-08-16T16:54:18.932Z,34.38
2018-08-16T16:56:46.076Z,34.58
2018-08-16T16:59:14.499Z,34.97
2018-08-16T17:01:42.230Z,35.15
2018-08-16T17:04:09.680Z,35.58
2018-08-16T17:06:36.685Z,35.68
2018-08-16T17:09:06.083Z,35.80
2018-08-16T17:11:33.299Z,35.05
2018-08-16T17:14:01.039Z,36.04
2018-08-16T17:16:28.215Z,36.26
2018-08-16T17:18:55.356Z,35.87
2018-08-16T17:21:22.761Z,35.44
2018-08-16T17:23:49.995Z,35.48
2018-08-16T17:26:17.253Z,36.48
2018-08-16T17:28:44.336Z,36.11
2018-08-16T17:31:11.577Z,36.17
2018-08-16T17:33:38.714Z,36.71
2018-08-16T17:36:05.963Z,37.56
2018-08-16T17:38:33.198Z,37.81
2018-08-16T17:41:00.417Z,37.35
2018-08-16T17:43:27.576Z,37.15
2018-08-16T17:45:55.768Z,37.75
2018-08-16T17:48:22.991Z,37.91
2018-08-16T17:50:50.199Z,38.98
2018-08-16T17:53:17.347Z,39.54
2018-08-16T17:55:44.491Z,38.81
2018-08-16T17:58:11.611Z,39.79
2018-08-16T18:00:38.901Z,41.29
2018-08-16T18:03:06.130Z,40.66
2018-08-16T18:05:33.271Z,40.26
2018-08-16T18:08:00.446Z,42.98
2018-08-16T18:10:27.587Z,41.65
2018-08-16T18:12:54.857Z,41.76
2018-08-16T18:15:22.106Z,41.72
2018-08-16T18:17:49.220Z,42.17
2018-08-16T18:20:16.389Z,41.34
2018-08-16T18:22:43.596Z,41.60
2018-08-16T18:25:10.786Z,41.63
2018-08-16T18:27:38.002Z,42.13
2018-08-16T18:30:06.748Z,42.40
2018-08-16T18:32:33.885Z,42.16
2018-08-16T18:35:01.110Z,43.02
2018-08-16T18:37:28.327Z,42.76
2018-08-16T18:39:55.644Z,44.89
2018-08-16T18:42:22.825Z,45.83
2018-08-16T18:44:50.070Z,45.57
2018-08-16T18:47:17.183Z,48.88
2018-08-16T18:49:44.384Z,49.35
2018-08-16T18:52:11.664Z,50.46
2018-08-16T18:54:38.826Z,49.14
2018-08-16T18:57:05.959Z,50.48
2018-08-16T18:59:33.174Z,52.85
2018-08-16T19:02:00.447Z,52.54
2018-08-16T19:04:27.680Z,54.36
2018-08-16T19:06:54.852Z,55.05
2018-08-16T19:09:21.981Z,55.11
2018-08-16T19:11:49.106Z,55.12
2018-08-16T19:14:16.380Z,54.69
2018-08-16T19:16:44.061Z,55.32
2018-08-16T19:19:11.216Z,57.57
2018-08-16T19:21:38.425Z,57.70
2018-08-16T19:24:05.613Z,58.45
2018-08-16T19:26:33.014Z,56.13
2018-08-16T19:29:00.317Z,56.64
2018-08-16T19:31:27.447Z,56.93
2018-08-16T19:33:54.621Z,56.28
2018-08-16T19:36:21.774Z,57.71
2018-08-16T19:38:48.986Z,57.92
2018-08-16T19:41:16.210Z,58.56
2018-08-16T19:43:43.436Z,59.05
2018-08-16T19:46:10.568Z,60.16
2018-08-16T19:48:37.961Z,59.94
2018-08-16T19:51:05.392Z,58.01
2018-08-16T19:53:32.616Z,58.12
2018-08-16T19:55:59.753Z,57.94
2018-08-16T19:58:27.101Z,58.79
2018-08-16T20:00:54.306Z,58.71
2018-08-16T20:03:21.618Z,58.95
2018-08-16T20:05:48.964Z,59.55
2018-08-16T20:08:16.086Z,59.57
2018-08-16T20:10:43.259Z,59.59
2018-08-16T20:13:10.549Z,60.94
2018-08-16T20:15:37.815Z,61.61
2018-08-16T20:18:05.124Z,61.30
2018-08-16T20:20:32.281Z,60.86
2018-08-16T20:22:59.428Z,61.37
2018-08-16T20:25:26.607Z,61.96
2018-08-16T20:27:53.846Z,61.94
2018-08-16T20:30:21.265Z,63.45
2018-08-16T20:32:48.419Z,63.88
2018-08-16T20:35:15.635Z,62.91
2018-08-16T20:37:42.825Z,62.88
2018-08-16T20:40:10.100Z,62.94
2018-08-16T20:42:37.413Z,63.59
2018-08-16T20:45:05.112Z,62.73
2018-08-16T20:47:32.397Z,63.78
2018-08-16T20:49:59.591Z,64.36
2018-08-16T20:52:26.787Z,62.43
2018-08-16T20:54:54.021Z,63.31
2018-08-16T20:57:21.313Z,64.42
2018-08-16T20:59:48.500Z,63.59
2018-08-16T21:02:15.724Z,64.56
2018-08-16T21:04:42.978Z,64.59
2018-08-16T21:07:10.183Z,64.62
2018-08-16T21:09:37.341Z,64.28
2018-08-16T21:12:04.552Z,64.61
2018-08-16T21:14:31.691Z,64.44
2018-08-16T21:16:58.888Z,64.42
2018-08-16T21:19:26.420Z,64.83
2018-08-16T21:22:03.783Z,61.71
2018-08-16T21:24:30.961Z,60.76
2018-08-16T21:26:58.108Z,59.05
2018-08-16T21:29:25.344Z,59.86
2018-08-16T21:31:52.527Z,58.88
2018-08-16T21:34:19.655Z,58.49
2018-08-16T21:36:47.451Z,58.83
2018-08-16T21:39:14.701Z,58.25
2018-08-16T21:41:41.903Z,58.01
2018-08-16T21:44:10.105Z,58.72
2018-08-16T21:46:37.504Z,57.15
2018-08-16T21:49:04.656Z,58.76
2018-08-16T21:51:31.850Z,57.51
2018-08-16T21:53:59.180Z,57.89
2018-08-16T21:56:26.307Z,57.97
2018-08-16T21:58:53.445Z,57.82
2018-08-16T22:01:20.623Z,58.20
2018-08-16T22:03:47.937Z,57.86
2018-08-16T22:06:27.719Z,57.66
2018-08-16T22:08:54.839Z,57.57
2018-08-16T22:11:21.987Z,58.45
2018-08-16T22:13:49.234Z,57.79
2018-08-16T22:16:16.454Z,57.86
2018-08-16T22:18:43.647Z,58.46
2018-08-16T22:21:11.007Z,58.27
2018-08-16T22:23:38.192Z,58.74
2018-08-16T22:26:05.569Z,58.63
2018-08-16T22:28:32.897Z,58.59
2018-08-16T22:31:00.511Z,58.97
2018-08-16T22:33:27.976Z,58.93
2018-08-16T22:35:55.241Z,58.78
2018-08-16T22:38:22.485Z,58.69
2018-08-16T22:40:49.727Z,59.95
2018-08-16T22:43:21.835Z,59.58
2018-08-16T22:45:48.988Z,58.79
2018-08-16T22:48:16.160Z,58.64
2018-08-16T22:50:43.417Z,58.74
2018-08-16T22:53:10.659Z,60.33
2018-08-16T22:55:37.827Z,60.32
2018-08-16T22:58:05.629Z,59.28
2018-08-16T23:00:32.762Z,60.43
2018-08-16T23:02:59.972Z,59.42
2018-08-16T23:05:27.232Z,59.88
2018-08-16T23:07:54.379Z,60.16
2018-08-16T23:10:21.768Z,59.52
2018-08-16T23:12:48.943Z,59.44
2018-08-16T23:15:16.145Z,59.33
2018-08-16T23:17:43.337Z,59.83
2018-08-16T23:20:10.596Z,61.25
2018-08-16T23:22:37.860Z,61.16
2018-08-16T23:25:05.183Z,62.02
2018-08-16T23:27:32.415Z,60.11
2018-08-16T23:29:59.602Z,60.30
2018-08-16T23:32:26.822Z,60.36
2018-08-16T23:34:54.117Z,59.99
2018-08-16T23:37:21.284Z,60.18
2018-08-16T23:39:48.630Z,59.53
2018-08-16T23:42:16.264Z,60.07
2018-08-16T23:44:43.431Z,59.53
2018-08-16T23:47:10.594Z,60.02
2018-08-16T23:49:37.784Z,59.39
2018-08-16T23:52:05.017Z,59.91
2018-08-16T23:54:32.276Z,60.91
2018-08-16T23:56:59.458Z,60.06
2018-08-16T23:59:26.699Z,61.71
